Time;durP1;ratioP1;P1;durP2;ratioP2;P2;SDS_P1;SDS_P2;PMS_P1;PMS_P2;Temp;Humidity;BMP_temperature;BMP_pressure;BME280_temperature;BME280_humidity;BME280_pressure;Samples;Min_cycle;Max_cycle;Signal;HPM_P1;HPM_P2
2021/07/10 00:00:55;;;;;;;24.03;22.07;;;;;;;22.40;100.00;91337.81;2088735;28;20976;-83
2021/07/10 00:01:56;;;;;;;24.00;22.00;;;;;;;-144.27;100.00;91335.28;2089394;28;20227;-83
2021/07/10 00:02:58;;;;;;;23.33;21.63;;;;;;;;;;2097048;28;20532;-83
2021/07/10 00:03:58;;;;;;;23.73;21.50;;;;;;;22.40;100.00;124740.00;2097620;28;20222;-83
2021/07/10 00:05:00;;;;;;;23.70;21.77;;;;;;;;;;2088683;28;20450;-83
2021/07/10 00:06:00;;;;;;;24.00;22.10;;;;;;;22.40;100.00;124740.00;2097144;28;20304;-83
2021/07/10 00:07:04;;;;;;;23.60;21.90;;;;;;;22.40;100.00;91336.38;2098291;28;20448;-83
2021/07/10 00:08:05;;;;;;;23.93;22.03;;;;;;;;;;2097003;28;20221;-83
2021/07/10 00:09:06;;;;;;;23.93;22.33;;;;;;;;;;2097768;28;21005;-83
2021/07/10 00:10:08;;;;;;;24.10;22.13;;;;;;;;;;2104841;28;20236;-81
2021/07/10 00:11:10;;;;;;;23.93;22.03;;;;;;;22.40;100.00;57714.63;2096620;28;20459;-83
2021/07/10 00:12:11;;;;;;;23.83;21.93;;;;;;;18.78;nan;99171.22;2097613;28;20464;-83
2021/07/10 00:13:12;;;;;;;24.03;22.07;;;;;;;;;;2097002;28;20539;-83
2021/07/10 00:14:13;;;;;;;23.23;21.17;;;;;;;;;;2088867;28;20225;-83
2021/07/10 00:15:16;;;;;;;23.63;21.73;;;;;;;22.40;100.00;57719.19;2089182;28;20507;-83
2021/07/10 00:16:18;;;;;;;23.27;21.30;;;;;;;22.40;100.00;57714.63;2096983;28;20217;-83
2021/07/10 00:17:20;;;;;;;23.43;21.57;;;;;;;22.40;100.00;57744.00;2097253;28;21043;-83
2021/07/10 00:18:21;;;;;;;23.47;21.77;;;;;;;;;;2097042;28;20527;-83
2021/07/10 00:19:22;;;;;;;24.47;22.57;;;;;;;;;;2097321;28;20448;-79
2021/07/10 00:20:23;;;;;;;23.60;21.77;;;;;;;;;;2097484;28;20218;-83
2021/07/10 00:21:24;;;;;;;23.60;21.80;;;;;;;;;;2088147;28;20932;-83
2021/07/10 00:22:25;;;;;;;23.50;21.90;;;;;;;22.40;100.00;57715.13;2097453;28;20229;-83
2021/07/10 00:23:27;;;;;;;23.57;21.40;;;;;;;22.40;100.00;57719.19;2096942;28;20993;-83
2021/07/10 00:24:30;;;;;;;23.50;21.60;;;;;;;22.40;100.00;124740.00;2096746;28;20230;-83
2021/07/10 00:25:32;;;;;;;22.53;20.93;;;;;;;22.40;100.00;57726.78;2097399;28;20506;-83
2021/07/10 00:26:33;;;;;;;22.57;20.67;;;;;;;;;;2097571;28;20986;-83
2021/07/10 00:27:34;;;;;;;22.00;20.50;;;;;;;;;;2098147;28;20796;-83
2021/07/10 00:28:35;;;;;;;23.20;21.60;;;;;;;22.40;100.00;164485.69;2096908;28;20284;-83
2021/07/10 00:29:37;;;;;;;22.67;20.90;;;;;;;-144.27;100.00;91335.28;2088110;28;20453;-83
2021/07/10 00:30:37;;;;;;;23.10;21.30;;;;;;;22.40;100.00;57713.63;2097193;28;20233;-82
2021/07/10 00:31:40;;;;;;;22.77;21.07;;;;;;;22.40;100.00;124757.34;2096747;28;20459;-82
2021/07/10 00:32:41;;;;;;;22.57;20.83;;;;;;;22.40;100.00;57772.41;2097127;28;20275;-83
2021/07/10 00:33:44;;;;;;;22.67;21.17;;;;;;;22.40;100.00;57713.63;2096548;28;20452;-82
2021/07/10 00:34:44;;;;;;;21.67;20.17;;;;;;;;;;2096719;28;20241;-83
2021/07/10 00:35:46;;;;;;;23.53;21.37;;;;;;;18.67;nan;99153.94;2097382;28;20449;-83
2021/07/10 00:36:47;;;;;;;23.07;21.03;;;;;;;;;;2096869;28;20284;-83
2021/07/10 00:37:48;;;;;;;22.83;21.20;;;;;;;;;;2096558;28;20550;-83
2021/07/10 00:38:49;;;;;;;24.30;22.07;;;;;;;;;;2097405;28;20704;-83
2021/07/10 00:39:51;;;;;;;23.20;21.60;;;;;;;22.40;100.00;164490.97;2097599;28;20854;-83
2021/07/10 00:40:52;;;;;;;23.07;21.40;;;;;;;22.40;100.00;57713.63;2097758;28;20209;-80
2021/07/10 00:41:53;;;;;;;23.90;22.10;;;;;;;;;;2097503;28;20517;-82
2021/07/10 00:42:54;;;;;;;23.63;21.97;;;;;;;22.40;100.00;124757.34;2097738;28;20218;-83
2021/07/10 00:43:55;;;;;;;23.10;21.47;;;;;;;22.40;100.00;57741.97;2097332;28;20491;-83
2021/07/10 00:44:56;;;;;;;23.57;21.47;;;;;;;;;;2088665;28;20241;-83
2021/07/10 00:45:57;;;;;;;22.83;21.13;;;;;;;;;;2097054;28;20455;-82
2021/07/10 00:46:59;;;;;;;22.40;20.60;;;;;;;22.40;100.00;57713.63;2097549;28;20297;-82
2021/07/10 00:48:01;;;;;;;22.33;20.63;;;;;;;;;;2096615;28;20448;-83
2021/07/10 00:49:02;;;;;;;23.07;21.30;;;;;;;22.40;100.00;57726.78;2096835;28;20950;-82
2021/07/10 00:50:06;;;;;;;23.17;21.57;;;;;;;;;;2088549;28;20485;-82
2021/07/10 00:51:08;;;;;;;22.93;21.40;;;;;;;22.40;100.00;57726.78;2096820;28;20469;-82
2021/07/10 00:52:09;;;;;;;22.73;21.00;;;;;;;22.40;100.00;164132.13;2097296;28;20456;-82
2021/07/10 00:53:11;;;;;;;22.10;20.57;;;;;;;;;;2096562;28;20491;-82
2021/07/10 00:54:11;;;;;;;23.10;21.03;;;;;;;22.40;100.00;57744.00;2097311;28;21315;-82
2021/07/10 00:55:13;;;;;;;23.00;21.23;;;;;;;22.40;100.00;57713.63;2097310;28;20854;-82
2021/07/10 00:56:14;;;;;;;22.53;20.63;;;;;;;22.40;100.00;57713.63;2096481;28;20217;-82
2021/07/10 00:57:16;;;;;;;21.67;20.03;;;;;;;;;;2097133;28;20447;-83
2021/07/10 00:58:17;;;;;;;21.77;20.17;;;;;;;22.40;100.00;57726.78;2097422;28;20460;-83
2021/07/10 00:59:19;;;;;;;22.07;20.30;;;;;;;22.40;100.00;57744.00;2097907;28;20448;-82
2021/07/10 01:00:21;;;;;;;22.23;20.27;;;;;;;22.40;100.00;57714.63;2097241;28;20572;-83
2021/07/10 01:01:23;;;;;;;21.93;20.00;;;;;;;;;;2096088;28;20814;-82
2021/07/10 01:02:24;;;;;;;22.47;20.50;;;;;;;;;;2089187;28;20449;-82
2021/07/10 01:03:26;;;;;;;22.53;20.70;;;;;;;22.40;100.00;124740.00;2088272;28;20473;-82
2021/07/10 01:04:27;;;;;;;22.30;20.60;;;;;;;;;;2096600;28;20485;-82
2021/07/10 01:05:29;;;;;;;22.70;20.90;;;;;;;;;;2096599;28;20502;-82
2021/07/10 01:06:30;;;;;;;21.70;20.20;;;;;;;22.40;100.00;164132.13;2096437;28;20284;-83
2021/07/10 01:07:32;;;;;;;21.93;20.13;;;;;;;22.40;100.00;57726.78;2088946;28;20488;-82
2021/07/10 01:08:35;;;;;;;22.80;20.93;;;;;;;22.40;100.00;124757.34;2096695;28;20226;-83
2021/07/10 01:09:36;;;;;;;22.73;20.93;;;;;;;;;;2098052;28;21016;-82
2021/07/10 01:10:37;;;;;;;22.90;20.97;;;;;;;;;;2096734;28;20448;-81
2021/07/10 01:11:38;;;;;;;23.40;21.50;;;;;;;22.40;100.00;57715.13;2097252;28;20487;-81
2021/07/10 01:12:41;;;;;;;23.40;21.60;;;;;;;;;;2097327;28;20233;-83
2021/07/10 01:13:43;;;;;;;22.90;21.13;;;;;;;22.40;100.00;57714.63;2097318;28;20461;-83
2021/07/10 01:14:44;;;;;;;22.20;20.40;;;;;;;22.40;100.00;57741.97;2096908;28;20456;-83
2021/07/10 01:15:45;;;;;;;23.83;21.37;;;;;;;22.40;100.00;91336.38;2096417;28;20522;-82
2021/07/10 01:16:46;;;;;;;22.63;21.03;;;;;;;22.40;100.00;164485.69;2096457;28;20630;-82
2021/07/10 01:17:49;;;;;;;23.40;21.20;;;;;;;22.40;100.00;124740.00;2088670;28;20484;-83
2021/07/10 01:18:50;;;;;;;23.00;21.40;;;;;;;18.06;nan;99234.06;2088227;28;20272;-83
2021/07/10 01:19:58;;;;;;;22.53;20.57;;;;;;;22.40;100.00;124665.31;2096458;28;20448;-83
2021/07/10 01:21:01;;;;;;;22.23;20.63;;;;;;;22.40;100.00;57774.44;2096845;28;20226;-83
2021/07/10 01:22:02;;;;;;;23.77;22.17;;;;;;;;;;2097142;28;20448;-82
2021/07/10 01:23:03;;;;;;;23.20;21.37;;;;;;;;;;2097693;28;20493;-82
2021/07/10 01:24:05;;;;;;;23.17;21.10;;;;;;;;;;2096095;28;20502;-83
2021/07/10 01:25:08;;;;;;;23.33;21.50;;;;;;;22.40;100.00;57726.78;2088164;28;20234;-82
2021/07/10 01:26:10;;;;;;;23.17;21.23;;;;;;;22.40;100.00;57774.44;2096727;28;20539;-82
2021/07/10 01:27:10;;;;;;;21.80;20.30;;;;;;;;;;2097020;28;20550;-83
2021/07/10 01:28:13;;;;;;;21.90;20.40;;;;;;;;;;2097800;28;20503;-82
2021/07/10 01:29:14;;;;;;;22.10;20.40;;;;;;;;;;2097117;28;20217;-82
2021/07/10 01:30:16;;;;;;;21.63;20.07;;;;;;;;;;2097171;28;20448;-83
2021/07/10 01:31:18;;;;;;;22.03;20.33;;;;;;;22.40;100.00;57713.63;2097091;28;20214;-83
2021/07/10 01:32:21;;;;;;;22.20;20.50;;;;;;;22.40;100.00;124665.31;2088150;28;20465;-82
2021/07/10 01:33:22;;;;;;;21.57;19.97;;;;;;;22.40;100.00;124665.31;2088450;28;20465;-80
2021/07/10 01:34:23;;;;;;;22.60;20.80;;;;;;;22.40;100.00;57713.63;2088034;28;20465;-82
2021/07/10 01:35:24;;;;;;;22.37;20.53;;;;;;;22.40;100.00;57713.63;2095771;28;20732;-82
2021/07/10 01:36:27;;;;;;;22.20;20.57;;;;;;;22.40;100.00;124740.00;2105349;28;20765;-82
2021/07/10 01:37:28;;;;;;;22.87;21.00;;;;;;;22.40;100.00;124665.31;2097076;28;20218;-82
2021/07/10 01:38:30;;;;;;;23.57;21.57;;;;;;;;;;2096162;28;20531;-83
2021/07/10 01:39:30;;;;;;;22.10;20.53;;;;;;;22.40;100.00;57713.63;2087998;28;20229;-83
2021/07/10 01:40:32;;;;;;;21.87;20.07;;;;;;;22.40;100.00;57713.63;2087940;28;20479;-83
2021/07/10 01:41:40;;;;;;;22.67;20.87;;;;;;;;;;2096106;28;20230;-83
2021/07/10 01:42:41;;;;;;;21.77;20.03;;;;;;;;;;2103564;28;20835;-82
2021/07/10 01:43:42;;;;;;;21.57;20.17;;;;;;;;;;2097661;28;20445;-82
2021/07/10 01:44:44;;;;;;;23.00;21.10;;;;;;;22.40;100.00;57722.72;2097119;28;20468;-82
2021/07/10 01:45:44;;;;;;;21.93;20.33;;;;;;;;;;2095706;28;20225;-82
2021/07/10 01:46:46;;;;;;;23.03;20.97;;;;;;;;;;2096981;28;20964;-82
2021/07/10 01:47:47;;;;;;;21.97;20.53;;;;;;;22.40;100.00;57744.00;2096977;28;20304;-83
2021/07/10 01:48:48;;;;;;;23.00;20.90;;;;;;;22.40;100.00;57713.63;2096773;28;20460;-83
2021/07/10 01:49:49;;;;;;;22.93;20.77;;;;;;;;;;2096695;28;20218;-83
2021/07/10 01:50:50;;;;;;;21.83;20.13;;;;;;;;;;2096250;28;20938;-83
2021/07/10 01:51:52;;;;;;;21.53;19.83;;;;;;;;;;2097651;28;20228;-83
2021/07/10 01:52:54;;;;;;;22.37;20.77;;;;;;;;;;2096823;28;20456;-82
2021/07/10 01:53:55;;;;;;;20.93;19.47;;;;;;;22.40;100.00;57713.63;2095847;28;20510;-82
2021/07/10 01:54:56;;;;;;;21.93;20.17;;;;;;;;;;2088332;28;20511;-83
2021/07/10 01:55:58;;;;;;;21.10;19.50;;;;;;;;;;2096422;28;20230;-82
2021/07/10 01:56:58;;;;;;;21.77;20.27;;;;;;;-144.27;100.00;91335.28;2096837;28;20549;-83
2021/07/10 01:58:01;;;;;;;21.70;20.10;;;;;;;;;;2096586;28;20437;-82
2021/07/10 01:59:02;;;;;;;22.17;20.07;;;;;;;22.40;100.00;57713.63;2097024;28;20221;-83
2021/07/10 02:00:06;;;;;;;22.10;20.47;;;;;;;;;;2097580;28;20476;-83
2021/07/10 02:01:06;;;;;;;21.30;19.73;;;;;;;22.40;100.00;91336.38;2097238;28;20253;-83
2021/07/10 02:02:08;;;;;;;21.10;19.57;;;;;;;;;;2095960;28;20460;-82
2021/07/10 02:03:09;;;;;;;21.17;19.77;;;;;;;22.40;100.00;124673.94;2087263;28;20231;-83
2021/07/10 02:04:11;;;;;;;20.43;18.93;;;;;;;22.40;100.00;57741.97;2096324;28;20990;-83
2021/07/10 02:05:12;;;;;;;22.40;20.30;;;;;;;;;;2097541;28;20226;-82
2021/07/10 02:06:13;;;;;;;21.77;20.00;;;;;;;;;;2095786;28;20453;-83
2021/07/10 02:07:16;;;;;;;21.27;19.77;;;;;;;22.40;100.00;57726.78;2087949;28;20215;-83
2021/07/10 02:08:18;;;;;;;20.40;19.10;;;;;;;22.40;100.00;57713.63;2096593;28;20484;-84
2021/07/10 02:09:18;;;;;;;21.67;19.97;;;;;;;;;;2096829;28;20459;-83
2021/07/10 02:10:20;;;;;;;20.97;19.57;;;;;;;;;;2096318;28;20540;-83
2021/07/10 02:11:21;;;;;;;21.77;19.83;;;;;;;22.40;100.00;57726.78;2096195;28;20698;-83
2021/07/10 02:12:23;;;;;;;21.00;19.50;;;;;;;;;;2095624;28;20453;-83
2021/07/10 02:13:23;;;;;;;21.07;19.47;;;;;;;;;;2088051;28;20263;-83
2021/07/10 02:14:25;;;;;;;20.03;18.73;;;;;;;;;;2096104;28;20486;-82
2021/07/10 02:15:26;;;;;;;20.77;19.30;;;;;;;;;;2097440;28;20218;-83
2021/07/10 02:16:27;;;;;;;20.97;19.50;;;;;;;;;;2096903;28;20456;-83
2021/07/10 02:17:27;;;;;;;20.73;19.33;;;;;;;;;;2096934;28;20229;-83
2021/07/10 02:18:29;;;;;;;21.20;19.43;;;;;;;;;;2096765;28;20519;-83
2021/07/10 02:19:29;;;;;;;21.40;19.70;;;;;;;;;;2087809;28;20696;-83
2021/07/10 02:20:31;;;;;;;20.93;19.50;;;;;;;;;;2096807;28;20536;-83
2021/07/10 02:21:32;;;;;;;21.87;19.93;;;;;;;;;;2096113;28;20607;-83
2021/07/10 02:22:34;;;;;;;21.73;20.13;;;;;;;;;;2096202;28;20567;-83
2021/07/10 02:23:35;;;;;;;21.60;19.83;;;;;;;;;;2097476;28;20222;-83
2021/07/10 02:24:37;;;;;;;21.00;19.50;;;;;;;;;;2095764;28;20480;-83
2021/07/10 02:25:37;;;;;;;21.87;20.03;;;;;;;22.40;100.00;57713.63;2095739;28;20218;-82
2021/07/10 02:26:39;;;;;;;21.80;20.20;;;;;;;;;;2097312;28;20996;-82
2021/07/10 02:27:40;;;;;;;21.30;19.40;;;;;;;22.40;100.00;57774.44;2096795;28;20747;-83
2021/07/10 02:28:41;;;;;;;20.93;19.27;;;;;;;;;;2096227;28;20928;-83
2021/07/10 02:29:42;;;;;;;20.73;19.03;;;;;;;22.40;100.00;57726.78;2087680;28;20226;-82
2021/07/10 02:30:44;;;;;;;21.33;19.73;;;;;;;;;;2087748;28;20939;-82
2021/07/10 02:31:44;;;;;;;20.77;19.27;;;;;;;22.40;100.00;124740.00;2088032;28;20223;-83
2021/07/10 02:32:46;;;;;;;21.40;20.00;;;;;;;;;;2087244;28;20451;-83
2021/07/10 02:33:47;;;;;;;21.90;19.73;;;;;;;;;;2096784;28;20256;-83
2021/07/10 02:34:48;;;;;;;21.20;19.50;;;;;;;;;;2095581;28;20445;-83
2021/07/10 02:35:49;;;;;;;22.37;20.40;;;;;;;;;;2087281;28;20227;-83
2021/07/10 02:36:51;;;;;;;21.03;19.33;;;;;;;;;;2088460;28;20528;-83
2021/07/10 02:37:53;;;;;;;22.07;20.47;;;;;;;;;;2087240;28;20230;-79
2021/07/10 02:38:54;;;;;;;21.50;19.97;;;;;;;;;;2088153;28;20461;-83
2021/07/10 02:39:55;;;;;;;22.47;20.87;;;;;;;22.40;100.00;57713.63;2087636;28;20460;-82
2021/07/10 02:40:57;;;;;;;22.27;20.37;;;;;;;;;;2096026;28;20451;-82
2021/07/10 02:41:57;;;;;;;22.10;20.17;;;;;;;;;;2097439;28;20226;-82
2021/07/10 02:42:59;;;;;;;20.30;18.80;;;;;;;;;;2096852;28;20436;-82
2021/07/10 02:43:59;;;;;;;21.40;19.70;;;;;;;;;;2095824;28;20233;-83
2021/07/10 02:45:02;;;;;;;20.83;19.17;;;;;;;;;;2088165;28;20429;-82
2021/07/10 02:46:02;;;;;;;20.73;19.17;;;;;;;;;;2087564;28;20227;-83
2021/07/10 02:47:04;;;;;;;21.63;19.73;;;;;;;;;;2096757;28;20435;-82
2021/07/10 02:48:04;;;;;;;22.30;20.50;;;;;;;;;;2096812;28;20314;-83
2021/07/10 02:49:06;;;;;;;22.03;20.40;;;;;;;22.40;100.00;57741.97;2096803;28;20451;-83
2021/07/10 02:50:10;;;;;;;22.07;20.43;;;;;;;22.40;100.00;57713.63;2096703;28;20282;-82
2021/07/10 02:51:11;;;;;;;22.10;20.27;;;;;;;;;;2095876;28;20522;-83
2021/07/10 02:52:12;;;;;;;22.20;20.60;;;;;;;;;;2096645;28;20456;-83
2021/07/10 02:53:15;;;;;;;22.60;20.70;;;;;;;22.40;100.00;57713.63;2096419;28;21000;-83
2021/07/10 02:54:15;;;;;;;21.40;19.70;;;;;;;;;;2097735;28;20222;-83
2021/07/10 02:55:17;;;;;;;21.83;20.23;;;;;;;22.40;100.00;124757.34;2098015;28;21010;-83
2021/07/10 02:56:17;;;;;;;22.40;20.53;;;;;;;;;;2097794;28;20221;-83
2021/07/10 02:57:19;;;;;;;21.93;20.30;;;;;;;;;;2098052;28;20456;-83
2021/07/10 02:58:19;;;;;;;21.30;19.47;;;;;;;;;;2089616;28;20226;-83
2021/07/10 02:59:21;;;;;;;20.97;19.53;;;;;;;;;;2097564;28;20535;-82
2021/07/10 03:00:23;;;;;;;21.20;19.50;;;;;;;;;;2098783;28;20218;-79
2021/07/10 03:01:24;;;;;;;20.70;19.30;;;;;;;;;;2097323;28;20456;-82
2021/07/10 03:02:25;;;;;;;20.63;18.83;;;;;;;;;;2089236;28;20534;-82
2021/07/10 03:03:26;;;;;;;20.40;19.00;;;;;;;;;;2098638;28;20513;-82
2021/07/10 03:04:27;;;;;;;21.00;19.30;;;;;;;;;;2098205;28;20222;-81
2021/07/10 03:05:29;;;;;;;21.33;19.63;;;;;;;22.40;100.00;57835.25;2098841;28;20994;-83
2021/07/10 03:06:29;;;;;;;21.23;19.73;;;;;;;;;;2098317;28;20614;-82
2021/07/10 03:07:31;;;;;;;20.70;19.30;;;;;;;;;;2098188;28;20443;-83
2021/07/10 03:08:33;;;;;;;20.70;19.40;;;;;;;;;;2097723;28;20229;-83
2021/07/10 03:09:34;;;;;;;21.00;19.53;;;;;;;;;;2089064;28;20468;-83
2021/07/10 03:10:34;;;;;;;20.60;19.20;;;;;;;;;;2097994;28;20448;-82
2021/07/10 03:11:36;;;;;;;20.70;19.20;;;;;;;;;;2096762;28;20523;-83
2021/07/10 03:12:37;;;;;;;21.20;19.57;;;;;;;22.40;100.00;57774.44;2088707;28;20226;-81
2021/07/10 03:13:39;;;;;;;22.10;20.20;;;;;;;;;;2098824;28;20480;-82
2021/07/10 03:14:39;;;;;;;21.27;19.30;;;;;;;17.49;nan;99209.94;2097327;28;20225;-82
2021/07/10 03:15:41;;;;;;;20.13;18.83;;;;;;;;;;2089220;28;20457;-83
2021/07/10 03:16:42;;;;;;;20.87;19.30;;;;;;;22.40;100.00;57713.63;2089075;28;20257;-82
2021/07/10 03:17:43;;;;;;;21.40;19.90;;;;;;;;;;2097514;28;20950;-82
2021/07/10 03:18:44;;;;;;;21.00;19.60;;;;;;;;;;2098109;28;20981;-82
2021/07/10 03:19:45;;;;;;;19.93;18.37;;;;;;;;;;2089050;28;20881;-82
2021/07/10 03:20:46;;;;;;;20.13;18.53;;;;;;;;;;2097418;28;20226;-83
2021/07/10 03:21:48;;;;;;;20.47;18.87;;;;;;;;;;2097563;28;20471;-82
2021/07/10 03:22:48;;;;;;;20.30;18.90;;;;;;;;;;2088742;28;20248;-83
2021/07/10 03:23:51;;;;;;;20.83;19.07;;;;;;;22.40;100.00;57713.63;2098065;28;20469;-83
2021/07/10 03:24:52;;;;;;;20.57;19.10;;;;;;;;;;2096755;28;20226;-81
2021/07/10 03:25:53;;;;;;;20.20;18.67;;;;;;;;;;2089018;28;20469;-82
2021/07/10 03:26:54;;;;;;;21.10;19.23;;;;;;;22.40;100.00;57741.97;2097847;28;20230;-82
2021/07/10 03:27:57;;;;;;;21.13;19.33;;;;;;;;;;2097981;28;20441;-83
2021/07/10 03:28:58;;;;;;;20.33;18.73;;;;;;;;;;2098018;28;20245;-83
2021/07/10 03:29:59;;;;;;;20.47;18.87;;;;;;;;;;2097288;28;20463;-82
2021/07/10 03:31:00;;;;;;;20.60;19.00;;;;;;;;;;2097352;28;20222;-82
2021/07/10 03:32:01;;;;;;;20.63;19.23;;;;;;;;;;2098181;28;20532;-82
2021/07/10 03:33:02;;;;;;;20.87;19.47;;;;;;;;;;2098002;28;20240;-82
2021/07/10 03:34:03;;;;;;;20.60;19.20;;;;;;;;;;2098449;28;20448;-81
2021/07/10 03:35:04;;;;;;;21.00;19.40;;;;;;;;;;2097988;28;20222;-82
2021/07/10 03:36:07;;;;;;;20.57;19.00;;;;;;;;;;2097032;28;20453;-82
2021/07/10 03:37:07;;;;;;;20.67;19.07;;;;;;;;;;2097501;28;20448;-81
2021/07/10 03:38:09;;;;;;;20.67;19.27;;;;;;;;;;2097115;28;20559;-82
2021/07/10 03:39:11;;;;;;;20.77;19.27;;;;;;;;;;2088903;28;20744;-82
2021/07/10 03:40:14;;;;;;;20.77;19.37;;;;;;;22.40;100.00;57713.63;2089107;28;20475;-82
2021/07/10 03:41:17;;;;;;;21.03;19.33;;;;;;;22.40;100.00;57713.63;2089155;28;20457;-82
2021/07/10 03:42:19;;;;;;;21.10;19.60;;;;;;;;;;2097925;28;20449;-82
2021/07/10 03:43:19;;;;;;;20.85;19.55;;;;;;;;;;2097999;28;20458;-82
2021/07/10 03:44:21;;;;;;;21.00;19.63;;;;;;;;;;2097217;28;20248;-82
2021/07/10 03:45:22;;;;;;;20.80;19.40;;;;;;;22.40;100.00;57713.63;2097419;28;20218;-82
2021/07/10 03:46:24;;;;;;;21.07;19.40;;;;;;;;;;2097008;28;20490;-82
2021/07/10 03:47:24;;;;;;;20.83;19.33;;;;;;;;;;2089182;28;20223;-83
2021/07/10 03:48:26;;;;;;;20.13;18.83;;;;;;;;;;2088769;28;20484;-82
2021/07/10 03:49:26;;;;;;;20.10;18.70;;;;;;;;;;2097256;28;26620;-83
2021/07/10 03:50:28;;;;;;;20.70;18.90;;;;;;;;;;2097812;28;20492;-82
2021/07/10 03:51:28;;;;;;;20.40;18.90;;;;;;;;;;2097218;28;20214;-82
2021/07/10 03:52:30;;;;;;;20.70;19.10;;;;;;;;;;2097135;28;20441;-82
2021/07/10 03:53:30;;;;;;;20.20;18.53;;;;;;;;;;2097206;28;20217;-83
2021/07/10 03:54:33;;;;;;;20.23;18.83;;;;;;;;;;2097993;28;20540;-82
2021/07/10 03:55:34;;;;;;;20.30;18.90;;;;;;;22.40;100.00;57711.59;2098954;28;20226;-83
2021/07/10 03:56:35;;;;;;;19.60;18.30;;;;;;;;;;2096561;28;20495;-83
2021/07/10 03:57:36;;;;;;;19.73;18.43;;;;;;;;;;2097217;28;20230;-82
2021/07/10 03:58:37;;;;;;;20.30;18.90;;;;;;;;;;2097730;28;20463;-80
2021/07/10 03:59:38;;;;;;;21.30;19.43;;;;;;;;;;2096930;28;20728;-82
2021/07/10 04:00:39;;;;;;;21.40;19.90;;;;;;;;;;2098082;28;20444;-82
2021/07/10 04:01:42;;;;;;;21.87;20.27;;;;;;;;;;2105020;28;20657;-83
2021/07/10 04:02:44;;;;;;;20.60;19.20;;;;;;;;;;2105316;28;20963;-83
2021/07/10 04:03:44;;;;;;;20.80;19.40;;;;;;;;;;2098650;28;20472;-82
2021/07/10 04:04:46;;;;;;;21.70;19.90;;;;;;;;;;2096773;28;20460;-83
2021/07/10 04:05:46;;;;;;;20.90;19.50;;;;;;;;;;2097983;28;20672;-83
2021/07/10 04:06:48;;;;;;;20.97;19.47;;;;;;;22.40;100.00;57711.59;2096738;28;20914;-83
2021/07/10 04:07:48;;;;;;;20.30;18.93;;;;;;;;;;2088802;28;20218;-83
2021/07/10 04:08:50;;;;;;;20.43;19.13;;;;;;;22.40;100.00;57741.97;2097746;28;20448;-82
2021/07/10 04:09:52;;;;;;;21.03;19.40;;;;;;;;;;2096927;28;20729;-83
2021/07/10 04:10:53;;;;;;;20.90;19.40;;;;;;;;;;2097193;28;20486;-82
2021/07/10 04:11:54;;;;;;;20.77;19.27;;;;;;;;;;2097896;28;20945;-82
2021/07/10 04:12:56;;;;;;;20.57;19.07;;;;;;;;;;2097570;28;20795;-82
2021/07/10 04:13:56;;;;;;;20.57;19.17;;;;;;;;;;2098449;28;20221;-83
2021/07/10 04:15:00;;;;;;;21.17;19.67;;;;;;;;;;2096968;28;20481;-82
2021/07/10 04:16:00;;;;;;;20.90;19.40;;;;;;;;;;2097055;28;20221;-82
2021/07/10 04:17:02;;;;;;;20.37;18.97;;;;;;;;;;2098368;28;21123;-83
2021/07/10 04:18:02;;;;;;;20.40;18.90;;;;;;;;;;2096950;28;20226;-83
2021/07/10 04:19:04;;;;;;;20.70;19.07;;;;;;;;;;2097636;28;20441;-82
2021/07/10 04:20:06;;;;;;;20.83;19.20;;;;;;;;;;2097844;28;20227;-83
2021/07/10 04:21:08;;;;;;;20.07;18.60;;;;;;;;;;2096447;28;21005;-82
2021/07/10 04:22:08;;;;;;;20.30;18.90;;;;;;;;;;2097304;28;20806;-82
2021/07/10 04:23:10;;;;;;;20.40;18.80;;;;;;;;;;2097662;28;20499;-83
2021/07/10 04:24:10;;;;;;;20.07;18.70;;;;;;;22.40;100.00;57711.59;2098293;28;20241;-82
2021/07/10 04:25:14;;;;;;;19.50;18.30;;;;;;;;;;2096522;28;23836;-82
2021/07/10 04:26:15;;;;;;;19.83;18.53;;;;;;;;;;2088242;28;20218;-82
2021/07/10 04:27:17;;;;;;;20.00;18.60;;;;;;;;;;2097516;28;20528;-82
2021/07/10 04:28:18;;;;;;;20.00;18.60;;;;;;;;;;2097620;28;20232;-82
2021/07/10 04:29:19;;;;;;;20.00;18.60;;;;;;;;;;2097064;28;20459;-83
2021/07/10 04:30:21;;;;;;;20.17;18.77;;;;;;;;;;2088667;28;20309;-82
2021/07/10 04:31:22;;;;;;;20.73;19.20;;;;;;;22.40;100.00;124792.00;2088073;28;20468;-79
2021/07/10 04:32:23;;;;;;;20.03;18.60;;;;;;;;;;2088793;28;20532;-82
2021/07/10 04:33:25;;;;;;;20.10;18.70;;;;;;;;;;2088206;28;20464;-82
2021/07/10 04:34:25;;;;;;;20.40;18.80;;;;;;;;;;2088256;28;20230;-82
2021/07/10 04:35:27;;;;;;;20.17;18.73;;;;;;;;;;2088418;28;20634;-82
2021/07/10 04:36:28;;;;;;;20.50;18.90;;;;;;;;;;2088537;28;20638;-82
2021/07/10 04:37:29;;;;;;;20.27;18.87;;;;;;;;;;2089140;28;20523;-82
2021/07/10 04:38:30;;;;;;;20.97;19.00;;;;;;;;;;2096947;28;20723;-82
2021/07/10 04:39:32;;;;;;;20.47;19.07;;;;;;;;;;2096686;28;20501;-83
2021/07/10 04:40:35;;;;;;;20.47;19.00;;;;;;;;;;2097530;28;20582;-82
2021/07/10 04:41:35;;;;;;;20.50;19.10;;;;;;;;;;2096670;28;20528;-82
2021/07/10 04:42:37;;;;;;;20.70;19.07;;;;;;;;;;2097545;28;20451;-82
2021/07/10 04:43:38;;;;;;;20.43;18.93;;;;;;;;;;2096315;28;20226;-81
2021/07/10 04:44:39;;;;;;;20.70;19.20;;;;;;;;;;2096861;28;20472;-82
2021/07/10 04:45:40;;;;;;;20.33;18.77;;;;;;;;;;2096986;28;20230;-82
2021/07/10 04:46:42;;;;;;;20.87;19.17;;;;;;;22.40;100.00;57711.59;2096770;28;20502;-81
2021/07/10 04:47:42;;;;;;;20.17;18.50;;;;;;;;;;2097229;28;20560;-82
2021/07/10 04:48:43;;;;;;;20.27;18.87;;;;;;;;;;2096751;28;20529;-82
2021/07/10 04:49:44;;;;;;;20.70;19.00;;;;;;;;;;2097476;28;20214;-82
2021/07/10 04:50:46;;;;;;;19.60;18.30;;;;;;;;;;2097989;28;20524;-82
2021/07/10 04:51:46;;;;;;;19.13;17.93;;;;;;;;;;2097426;28;20226;-82
2021/07/10 04:52:48;;;;;;;19.70;18.37;;;;;;;;;;2097309;28;20468;-82
2021/07/10 04:53:48;;;;;;;20.30;18.70;;;;;;;;;;2097359;28;20225;-82
2021/07/10 04:54:50;;;;;;;19.63;18.33;;;;;;;;;;2096647;28;20524;-82
2021/07/10 04:55:51;;;;;;;19.90;18.53;;;;;;;;;;2097361;28;20632;-82
2021/07/10 04:56:53;;;;;;;21.07;19.17;;;;;;;;;;2096130;28;20465;-81
2021/07/10 04:57:53;;;;;;;20.00;18.50;;;;;;;;;;2096579;28;20506;-82
2021/07/10 04:58:55;;;;;;;20.03;18.40;;;;;;;;;;2097629;28;20472;-82
2021/07/10 04:59:56;;;;;;;19.50;18.20;;;;;;;;;;2096472;28;20283;-82
2021/07/10 05:00:57;;;;;;;19.40;18.10;;;;;;;;;;2097495;28;20449;-82
2021/07/10 05:01:58;;;;;;;20.07;18.57;;;;;;;22.40;100.00;57772.41;2097472;28;20239;-82
2021/07/10 05:02:59;;;;;;;19.60;18.20;;;;;;;22.40;100.00;57722.72;2097439;28;20536;-82
2021/07/10 05:04:00;;;;;;;19.83;18.43;;;;;;;;;;2096714;28;20584;-82
2021/07/10 05:05:03;;;;;;;19.77;18.33;;;;;;;;;;2096774;28;20559;-83
2021/07/10 05:06:03;;;;;;;20.60;18.80;;;;;;;;;;2097048;28;20229;-82
2021/07/10 05:07:05;;;;;;;20.13;18.53;;;;;;;;;;2088428;28;20452;-82
2021/07/10 05:08:06;;;;;;;19.67;18.27;;;;;;;;;;2087787;28;20225;-82
2021/07/10 05:09:07;;;;;;;19.97;18.50;;;;;;;;;;2088580;28;20556;-81
2021/07/10 05:10:09;;;;;;;19.70;18.30;;;;;;;;;;2088057;28;20589;-82
2021/07/10 05:11:11;;;;;;;19.30;18.10;;;;;;;;;;2096524;28;20479;-82
2021/07/10 05:12:12;;;;;;;20.20;18.70;;;;;;;;;;2097836;28;20459;-82
2021/07/10 05:13:13;;;;;;;20.03;18.63;;;;;;;;;;2097209;28;20944;-82
2021/07/10 05:14:14;;;;;;;19.90;18.40;;;;;;;;;;2096751;28;20214;-82
2021/07/10 05:15:17;;;;;;;20.07;18.47;;;;;;;;;;2087463;28;20473;-82
2021/07/10 05:16:18;;;;;;;19.77;18.27;;;;;;;22.40;100.00;57711.59;2088096;28;20452;-82
2021/07/10 05:17:20;;;;;;;19.60;18.20;;;;;;;;;;2087918;28;20549;-82
2021/07/10 05:18:20;;;;;;;19.27;17.97;;;;;;;;;;2096482;28;20230;-82
2021/07/10 05:19:22;;;;;;;20.27;18.43;;;;;;;;;;2096453;28;20449;-83
2021/07/10 05:20:22;;;;;;;19.90;18.60;;;;;;;22.40;100.00;57713.63;2096214;28;20218;-82
2021/07/10 05:21:25;;;;;;;19.80;18.50;;;;;;;;;;2096028;28;20484;-82
2021/07/10 05:22:25;;;;;;;19.67;18.27;;;;;;;;;;2088737;28;20581;-82
2021/07/10 05:23:27;;;;;;;20.10;18.40;;;;;;;;;;2088118;28;22054;-82
2021/07/10 05:24:27;;;;;;;19.83;18.53;;;;;;;;;;2097149;28;20218;-82
2021/07/10 05:25:29;;;;;;;19.20;18.00;;;;;;;;;;2095746;28;20536;-82
2021/07/10 05:26:31;;;;;;;19.73;18.30;;;;;;;;;;2088221;28;20218;-82
2021/07/10 05:27:33;;;;;;;19.63;18.33;;;;;;;;;;2097149;28;20985;-83
2021/07/10 05:28:33;;;;;;;19.17;17.97;;;;;;;22.40;100.00;57713.63;2095927;28;20895;-83